createdAt,value
2018-07-09T00:00:23.871Z,41.81
2018-07-09T00:01:23.857Z,41.8
2018-07-09T00:02:23.910Z,41.91
2018-07-09T00:03:23.933Z,41.71
2018-07-09T00:04:23.938Z,41.71
2018-07-09T00:05:23.921Z,41.69
2018-07-09T00:06:23.932Z,41.47
2018-07-09T00:07:23.878Z,41.88
2018-07-09T00:08:23.963Z,41.78
2018-07-09T00:09:23.857Z,41.97
2018-07-09T00:10:23.885Z,42.06
2018-07-09T00:11:23.892Z,41.83
2018-07-09T00:12:23.887Z,41.43
2018-07-09T00:13:23.877Z,41.54
2018-07-09T00:14:23.866Z,41.62
2018-07-09T00:15:23.892Z,41.93
2018-07-09T00:16:23.864Z,42.06
2018-07-09T00:17:23.876Z,41.55
2018-07-09T00:18:23.878Z,41.84
2018-07-09T00:19:23.921Z,41.89
2018-07-09T00:20:23.876Z,42.46
2018-07-09T00:21:23.902Z,42.31
2018-07-09T00:22:23.925Z,42.39
2018-07-09T00:23:23.888Z,42.34
2018-07-09T00:24:23.888Z,42.56
2018-07-09T00:25:23.860Z,42.06
2018-07-09T00:26:23.885Z,42.6
2018-07-09T00:27:23.893Z,42.15
2018-07-09T00:28:23.896Z,42.82
2018-07-09T00:29:23.887Z,42.89
2018-07-09T00:30:23.841Z,42.59
2018-07-09T00:31:23.879Z,42.53
2018-07-09T00:32:24.003Z,42.69
2018-07-09T00:33:23.897Z,42.5
2018-07-09T00:34:23.942Z,42.16
2018-07-09T00:35:23.866Z,42.15
2018-07-09T00:36:23.875Z,42.3
2018-07-09T00:37:23.874Z,42.24
2018-07-09T00:38:23.915Z,43.16
2018-07-09T00:39:24.018Z,43.26
2018-07-09T00:40:23.918Z,43.35
2018-07-09T00:41:24.057Z,43.13
2018-07-09T00:42:23.923Z,43.64
2018-07-09T00:43:23.920Z,43.7
2018-07-09T00:44:23.883Z,43.12
2018-07-09T00:45:23.857Z,43.61
2018-07-09T00:46:23.884Z,43.82
2018-07-09T00:47:23.937Z,44.13
2018-07-09T00:48:23.868Z,44.34
2018-07-09T00:49:24.057Z,44.47
2018-07-09T00:50:23.943Z,44.58
2018-07-09T00:51:23.899Z,44.27
2018-07-09T00:52:23.905Z,44.39
2018-07-09T00:53:23.967Z,44.7
2018-07-09T00:54:23.909Z,44.58
2018-07-09T00:55:23.892Z,44.68
2018-07-09T00:56:24.062Z,44.54
2018-07-09T00:57:23.918Z,44.51
2018-07-09T00:58:23.837Z,44.94
2018-07-09T00:59:23.856Z,44.62
2018-07-09T01:00:23.896Z,44.7
2018-07-09T01:01:23.952Z,44.83
2018-07-09T01:02:23.894Z,45.3
2018-07-09T01:03:23.914Z,45.43
2018-07-09T01:04:23.928Z,45.26
2018-07-09T01:05:23.897Z,45.19
2018-07-09T01:06:23.922Z,44.83
2018-07-09T01:07:23.882Z,45.36
2018-07-09T01:08:23.970Z,44.9
2018-07-09T01:09:23.906Z,44.43
2018-07-09T01:10:23.888Z,45.46
2018-07-09T01:11:23.926Z,45.91
2018-07-09T01:12:23.939Z,45.64
2018-07-09T01:13:23.829Z,45.3
2018-07-09T01:14:23.875Z,44.92
2018-07-09T01:15:23.837Z,45.67
2018-07-09T01:16:23.842Z,45.76
2018-07-09T01:17:23.840Z,45.51
2018-07-09T01:18:24.006Z,45.33
2018-07-09T01:19:23.864Z,46.02
2018-07-09T01:20:23.902Z,45.29
2018-07-09T01:21:23.903Z,44.96
2018-07-09T01:22:23.907Z,45.03
2018-07-09T01:23:23.853Z,44.83
2018-07-09T01:24:23.846Z,45.2
2018-07-09T01:25:23.851Z,45.6
2018-07-09T01:26:23.878Z,45.17
2018-07-09T01:27:23.828Z,45.14
2018-07-09T01:28:23.873Z,46.03
2018-07-09T01:29:23.834Z,45.62
2018-07-09T01:30:23.845Z,45.98
2018-07-09T01:31:23.856Z,45.22
2018-07-09T01:32:23.854Z,46.29
2018-07-09T01:33:23.834Z,46.18
2018-07-09T01:34:23.852Z,45.94
2018-07-09T01:35:23.845Z,46.04
2018-07-09T01:36:23.853Z,45.39
2018-07-09T01:37:23.849Z,45.38
2018-07-09T01:38:23.869Z,45.68
2018-07-09T01:39:23.834Z,45.59
2018-07-09T01:40:23.824Z,46.69
2018-07-09T01:41:23.825Z,46.88
2018-07-09T01:42:23.851Z,46.37
2018-07-09T01:43:24.444Z,47.09
2018-07-09T01:44:23.889Z,46.98
2018-07-09T01:45:23.858Z,46.33
2018-07-09T01:46:23.875Z,46.39
2018-07-09T01:47:23.851Z,46.29
2018-07-09T01:48:23.848Z,47.67
2018-07-09T01:49:23.894Z,47.38
2018-07-09T01:50:23.966Z,47.36
2018-07-09T01:51:24.041Z,47.1
2018-07-09T01:52:23.908Z,46.51
2018-07-09T01:53:23.882Z,47.53
2018-07-09T01:54:23.903Z,47.79
2018-07-09T01:55:23.916Z,47.89
2018-07-09T01:56:23.890Z,47.6
2018-07-09T01:57:23.909Z,47.49
2018-07-09T01:58:23.847Z,48.23
2018-07-09T01:59:23.996Z,48.34
2018-07-09T02:00:23.915Z,48.47
2018-07-09T02:01:23.924Z,48.68
2018-07-09T02:02:23.883Z,48.44
2018-07-09T02:03:23.875Z,48.43
2018-07-09T02:04:23.878Z,48.44
2018-07-09T02:05:23.853Z,49.05
2018-07-09T02:06:23.882Z,48.5
2018-07-09T02:07:23.917Z,48.33
2018-07-09T02:08:23.853Z,49.12
2018-07-09T02:09:23.944Z,49.1
2018-07-09T02:10:23.925Z,48.89
2018-07-09T02:11:23.906Z,49.32
2018-07-09T02:12:23.860Z,48.76
2018-07-09T02:13:24.005Z,49.68
2018-07-09T02:14:24.027Z,49.41
2018-07-09T02:15:23.836Z,48.87
2018-07-09T02:16:23.923Z,48.71
2018-07-09T02:17:23.934Z,49.17
2018-07-09T02:18:24.065Z,48.69
2018-07-09T02:19:23.979Z,48.63
2018-07-09T02:20:24.048Z,49.6
2018-07-09T02:21:23.864Z,50.24
2018-07-09T02:22:24.094Z,49.28
2018-07-09T02:23:23.911Z,50.31
2018-07-09T02:24:23.891Z,49.9
2018-07-09T02:25:23.818Z,49.77
2018-07-09T02:26:23.902Z,50.41
2018-07-09T02:27:23.848Z,49.56
2018-07-09T02:28:23.844Z,49.18
2018-07-09T02:29:24.025Z,49.64
2018-07-09T02:30:23.921Z,49.6
2018-07-09T02:31:23.897Z,50.32
2018-07-09T02:32:23.936Z,50.87
2018-07-09T02:33:23.844Z,50.63
2018-07-09T02:34:23.848Z,50.41
2018-07-09T02:35:23.898Z,50.82
2018-07-09T02:36:24.006Z,50.4
2018-07-09T02:37:23.882Z,50.3
2018-07-09T02:38:24.228Z,49.82
2018-07-09T02:39:23.867Z,50.21
2018-07-09T02:40:23.821Z,51.07
2018-07-09T02:41:23.973Z,51.3
2018-07-09T02:42:23.844Z,50.48
2018-07-09T02:43:23.870Z,50.86
2018-07-09T02:44:23.831Z,51.66
2018-07-09T02:45:23.901Z,52.4
2018-07-09T02:46:23.823Z,51.79
2018-07-09T02:47:23.813Z,51.98
2018-07-09T02:48:23.835Z,52.28
2018-07-09T02:49:23.822Z,51.74
2018-07-09T02:50:23.908Z,52.34
2018-07-09T02:51:23.845Z,51.84
2018-07-09T02:52:23.831Z,51.54
2018-07-09T02:53:23.867Z,51.08
2018-07-09T02:54:23.835Z,51.29
2018-07-09T02:55:23.835Z,50.67
2018-07-09T02:56:23.834Z,51.46
2018-07-09T02:57:23.941Z,52.2
2018-07-09T02:58:23.932Z,51.6
2018-07-09T02:59:23.967Z,51.29
2018-07-09T03:00:23.830Z,52.21
2018-07-09T03:01:23.908Z,51.91
2018-07-09T03:02:23.939Z,52.52
2018-07-09T03:03:24.269Z,52.65
2018-07-09T03:04:23.955Z,52.48
2018-07-09T03:05:23.922Z,52.29
2018-07-09T03:06:23.899Z,53.35
2018-07-09T03:07:24.035Z,52.78
2018-07-09T03:08:23.885Z,52.73
2018-07-09T03:09:23.892Z,51.92
2018-07-09T03:10:23.815Z,53.19
2018-07-09T03:11:23.906Z,51.84
2018-07-09T03:12:23.913Z,52.02
2018-07-09T03:13:23.881Z,51.75
2018-07-09T03:14:23.907Z,52
2018-07-09T03:15:23.920Z,52.69
2018-07-09T03:16:23.971Z,52.1
2018-07-09T03:17:23.857Z,53.41
2018-07-09T03:18:23.849Z,53.67
2018-07-09T03:19:24.074Z,52.96
2018-07-09T03:20:23.899Z,52.75
2018-07-09T03:21:23.835Z,53.89
2018-07-09T03:22:23.904Z,53.78
2018-07-09T03:23:23.813Z,54.19
2018-07-09T03:24:23.815Z,54.26
2018-07-09T03:25:23.907Z,54.38
2018-07-09T03:26:23.986Z,53.65
2018-07-09T03:27:23.981Z,53.86
2018-07-09T03:28:23.922Z,53.28
2018-07-09T03:29:23.838Z,54.18
2018-07-09T03:30:23.922Z,53.79
2018-07-09T03:31:23.857Z,53.91
2018-07-09T03:32:23.886Z,54.32
2018-07-09T03:33:23.891Z,53.21
2018-07-09T03:34:23.969Z,54.48
2018-07-09T03:35:23.795Z,53.58
2018-07-09T03:36:23.886Z,53.49
2018-07-09T03:37:23.863Z,53.09
2018-07-09T03:38:23.850Z,53.79
2018-07-09T03:39:23.893Z,53.09
2018-07-09T03:40:23.923Z,53.71
2018-07-09T03:41:23.867Z,54.02
2018-07-09T03:42:23.807Z,55.01
2018-07-09T03:43:24.025Z,54.7
2018-07-09T03:44:23.885Z,54.31
2018-07-09T03:45:23.812Z,53.51
2018-07-09T03:46:23.939Z,53.62
2018-07-09T03:47:23.779Z,54.97
2018-07-09T03:48:23.941Z,55.12
2018-07-09T03:49:23.940Z,54.65
2018-07-09T03:50:23.858Z,54.23
2018-07-09T03:51:23.793Z,54.35
2018-07-09T03:52:23.807Z,53.7
2018-07-09T03:53:23.947Z,53.69
2018-07-09T03:54:23.869Z,53.75
2018-07-09T03:55:23.811Z,54.18
2018-07-09T03:56:23.829Z,54.2
2018-07-09T03:57:23.813Z,55.65
2018-07-09T03:58:23.814Z,54.23
2018-07-09T03:59:23.875Z,55.82
2018-07-09T04:00:23.847Z,55.54
2018-07-09T04:01:23.784Z,55.13
2018-07-09T04:02:23.810Z,55.36
2018-07-09T04:03:23.824Z,56.03
2018-07-09T04:04:23.877Z,55.43
2018-07-09T04:05:23.814Z,56.25
2018-07-09T04:06:23.875Z,56.53
2018-07-09T04:07:23.877Z,56.59
2018-07-09T04:08:23.935Z,56.43
2018-07-09T04:09:23.881Z,56.77
2018-07-09T04:10:23.864Z,56.24
2018-07-09T04:11:23.928Z,57.22
2018-07-09T04:12:23.904Z,56.34
2018-07-09T04:13:24.030Z,56.5
2018-07-09T04:14:23.865Z,56.93
2018-07-09T04:15:24.188Z,57.03
2018-07-09T04:16:23.882Z,57.24
2018-07-09T04:17:23.937Z,56.85
2018-07-09T04:18:23.948Z,55.96
2018-07-09T04:19:23.905Z,56.66
2018-07-09T04:20:24.003Z,56.39
2018-07-09T04:21:23.820Z,57.7
2018-07-09T04:22:23.842Z,57.62
2018-07-09T04:23:23.894Z,57.3
2018-07-09T04:24:23.860Z,56.96
2018-07-09T04:25:23.935Z,56.41
2018-07-09T04:26:23.846Z,57.86
2018-07-09T04:27:23.905Z,57.52
2018-07-09T04:28:23.814Z,57.61
2018-07-09T04:29:23.810Z,57.52
2018-07-09T04:30:23.823Z,56.25
2018-07-09T04:31:23.798Z,55.85
2018-07-09T04:32:24.062Z,57.41
2018-07-09T04:33:23.873Z,56.2
2018-07-09T04:34:23.952Z,56.36
2018-07-09T04:35:23.904Z,56.31
2018-07-09T04:36:23.917Z,56.09
2018-07-09T04:37:23.791Z,57.5
2018-07-09T04:38:23.926Z,56.6
2018-07-09T04:39:23.886Z,57.28
2018-07-09T04:40:23.788Z,56.98
2018-07-09T04:41:23.899Z,57.44
2018-07-09T04:42:23.973Z,56.19
2018-07-09T04:43:23.929Z,56.89
2018-07-09T04:44:23.819Z,57.25
2018-07-09T04:45:23.849Z,57.05
2018-07-09T04:46:23.902Z,56.57
2018-07-09T04:47:23.790Z,56.57
2018-07-09T04:48:23.812Z,57.2
2018-07-09T04:49:23.933Z,56.4
2018-07-09T04:50:23.926Z,55.62
2018-07-09T04:51:23.835Z,56.2
2018-07-09T04:52:23.843Z,55.68
2018-07-09T04:53:23.958Z,56.14
2018-07-09T04:54:23.843Z,55.92
2018-07-09T04:55:23.854Z,55.87
2018-07-09T04:56:23.900Z,55.45
2018-07-09T04:57:23.873Z,55.81
2018-07-09T04:58:23.792Z,55.02
2018-07-09T04:59:23.889Z,55.24
2018-07-09T05:00:23.803Z,55.12
2018-07-09T05:01:23.796Z,55.54
2018-07-09T05:02:23.818Z,55.46
2018-07-09T05:03:23.825Z,55.9
2018-07-09T05:04:23.817Z,55.75
2018-07-09T05:05:23.800Z,55.4
2018-07-09T05:06:23.809Z,55.66
2018-07-09T05:07:23.815Z,55.41
2018-07-09T05:08:23.805Z,55.16
2018-07-09T05:09:23.828Z,55.47
2018-07-09T05:10:23.806Z,55.37
2018-07-09T05:11:23.808Z,55.4
2018-07-09T05:12:23.828Z,55.19
2018-07-09T05:13:23.842Z,55.13
2018-07-09T05:14:23.831Z,55.67
2018-07-09T05:15:23.839Z,55.36
2018-07-09T05:16:23.850Z,55.61
2018-07-09T05:17:23.807Z,55.45
2018-07-09T05:18:23.811Z,55.84
2018-07-09T05:19:23.798Z,55.85
2018-07-09T05:20:23.901Z,55.82
2018-07-09T05:21:23.938Z,55.98
2018-07-09T05:22:23.810Z,56.17
2018-07-09T05:23:23.886Z,56.12
2018-07-09T05:24:24.217Z,55.44
2018-07-09T05:25:23.912Z,55.71
2018-07-09T05:26:23.929Z,56.13
2018-07-09T05:27:23.912Z,55.84
2018-07-09T05:28:23.838Z,56.23
2018-07-09T05:29:23.900Z,56.17
2018-07-09T05:30:23.854Z,56.18
2018-07-09T05:31:23.873Z,56.38
2018-07-09T05:32:23.948Z,56.46
2018-07-09T05:33:23.891Z,56.56
2018-07-09T05:34:23.890Z,56.23
2018-07-09T05:35:23.880Z,56.61
2018-07-09T05:36:23.897Z,55.97
2018-07-09T05:37:23.894Z,56.28
2018-07-09T05:38:23.846Z,56.42
2018-07-09T05:39:23.833Z,56.14
2018-07-09T05:40:23.878Z,56.72
2018-07-09T05:41:23.925Z,55.99
2018-07-09T05:42:23.847Z,55.34
2018-07-09T05:43:23.865Z,56.17
2018-07-09T05:44:23.855Z,55.94
2018-07-09T05:45:23.863Z,56.2
2018-07-09T05:46:23.874Z,56.81
2018-07-09T05:47:23.893Z,56.81
2018-07-09T05:48:23.911Z,55.91
2018-07-09T05:49:23.862Z,56.05
2018-07-09T05:50:23.845Z,55.56
2018-07-09T05:51:23.920Z,56.64
2018-07-09T05:52:24.028Z,56.12
2018-07-09T05:53:23.949Z,55.88
2018-07-09T05:54:23.855Z,56.48
2018-07-09T05:55:24.063Z,56.12
2018-07-09T05:56:23.915Z,55.59
2018-07-09T05:57:23.897Z,55.97
2018-07-09T05:58:23.938Z,55.77
2018-07-09T05:59:23.882Z,55.85
2018-07-09T06:00:23.900Z,55.85
2018-07-09T06:01:23.871Z,55.68
2018-07-09T06:02:23.926Z,55.78
2018-07-09T06:03:23.870Z,55.9
2018-07-09T06:04:23.861Z,55.97
2018-07-09T06:05:23.952Z,55.84
2018-07-09T06:06:24.004Z,55.58
2018-07-09T06:07:23.912Z,55.41
2018-07-09T06:08:23.865Z,55.83
2018-07-09T06:09:23.912Z,55.91
2018-07-09T06:10:23.879Z,55.48
2018-07-09T06:11:23.938Z,55.24
2018-07-09T06:12:23.880Z,55.66
2018-07-09T06:13:24.057Z,55.05
2018-07-09T06:14:23.856Z,55.29
2018-07-09T06:15:24.616Z,55.13
2018-07-09T06:16:23.979Z,55.28
2018-07-09T06:17:23.834Z,54.86
2018-07-09T06:18:23.842Z,54.74
2018-07-09T06:19:23.973Z,54.54
2018-07-09T06:20:23.844Z,54.45
2018-07-09T06:21:23.902Z,55.01
2018-07-09T06:22:23.859Z,54.24
2018-07-09T06:23:23.900Z,54.09
2018-07-09T06:24:23.873Z,53.99
2018-07-09T06:25:23.867Z,54.17
2018-07-09T06:26:23.858Z,54.09
2018-07-09T06:27:23.857Z,54.28
2018-07-09T06:28:23.860Z,53.79
2018-07-09T06:29:23.849Z,53.9
2018-07-09T06:30:23.863Z,53.12
2018-07-09T06:31:23.901Z,53.17
2018-07-09T06:32:23.844Z,52.99
2018-07-09T06:33:23.906Z,52.89
2018-07-09T06:34:23.837Z,52.97
2018-07-09T06:35:23.841Z,53.08
2018-07-09T06:36:23.932Z,53.07
2018-07-09T06:37:23.881Z,52.82
2018-07-09T06:38:23.865Z,52.81
2018-07-09T06:39:23.873Z,52.32
2018-07-09T06:40:23.991Z,52.3
2018-07-09T06:41:23.999Z,52.58
2018-07-09T06:42:23.937Z,52.08
2018-07-09T06:43:23.895Z,51.91
2018-07-09T06:44:23.935Z,52.33
2018-07-09T06:45:23.922Z,52.25
2018-07-09T06:46:24.107Z,52.33
2018-07-09T06:47:23.888Z,51.99
2018-07-09T06:48:23.891Z,52
2018-07-09T06:49:23.895Z,52.09
2018-07-09T06:50:23.955Z,52.03
2018-07-09T06:51:23.937Z,51.83
2018-07-09T06:52:23.921Z,51.63
2018-07-09T06:53:23.908Z,51.93
2018-07-09T06:54:23.861Z,52.16
2018-07-09T06:55:24.265Z,51.91
2018-07-09T06:56:24.503Z,51.7
2018-07-09T06:57:23.853Z,51.83
2018-07-09T06:58:24.057Z,51.6
2018-07-09T06:59:24.158Z,52.14
2018-07-09T07:00:23.909Z,52.17
2018-07-09T07:01:24.116Z,51.54
2018-07-09T07:02:24.040Z,51.5
2018-07-09T07:03:23.979Z,51.35
2018-07-09T07:04:23.942Z,50.96
2018-07-09T07:05:23.916Z,50.62
2018-07-09T07:06:23.936Z,50.67
2018-07-09T07:07:23.931Z,51
2018-07-09T07:08:23.923Z,50.76
2018-07-09T07:09:23.943Z,50.14
2018-07-09T07:10:23.921Z,49.96
2018-07-09T07:11:23.945Z,49.95
2018-07-09T07:12:23.909Z,50.06
2018-07-09T07:13:23.924Z,49.9
2018-07-09T07:14:24.021Z,49.84
2018-07-09T07:15:23.977Z,49.55
2018-07-09T07:16:23.949Z,49.8
2018-07-09T07:17:23.972Z,49.3
2018-07-09T07:18:24.139Z,49.48
2018-07-09T07:19:23.928Z,49.63
2018-07-09T07:20:23.908Z,49.2
2018-07-09T07:21:23.964Z,49.13
2018-07-09T07:22:24.034Z,49.13
2018-07-09T07:23:24.227Z,49.17
2018-07-09T07:24:23.982Z,49.19
2018-07-09T07:25:23.964Z,48.85
2018-07-09T07:26:23.979Z,48.54
2018-07-09T07:27:24.085Z,48.96
2018-07-09T07:28:23.960Z,48.64
2018-07-09T07:29:23.911Z,48.57
2018-07-09T07:30:23.927Z,48.39
2018-07-09T07:31:24.010Z,48.82
2018-07-09T07:32:23.934Z,48.4
2018-07-09T07:33:23.917Z,48.23
2018-07-09T07:34:23.987Z,48.54
2018-07-09T07:35:23.907Z,48.2
2018-07-09T07:36:23.911Z,48.54
2018-07-09T07:37:23.923Z,47.76
2018-07-09T07:38:23.869Z,48.16
2018-07-09T07:39:23.929Z,48.15
2018-07-09T07:40:23.887Z,48.37
2018-07-09T07:41:23.887Z,47.94
2018-07-09T07:42:23.895Z,47.93
2018-07-09T07:43:23.904Z,47.78
2018-07-09T07:44:23.889Z,47.55
2018-07-09T07:45:23.901Z,47.68
2018-07-09T07:46:23.888Z,47.49
2018-07-09T07:47:23.892Z,47.66
2018-07-09T07:48:23.917Z,47.05
2018-07-09T07:49:23.901Z,47.66
2018-07-09T07:50:24.030Z,46.83
2018-07-09T07:51:23.899Z,46.72
2018-07-09T07:52:23.906Z,46.73
2018-07-09T07:53:24.029Z,47.25
2018-07-09T07:54:23.965Z,47.22
2018-07-09T07:55:24.029Z,47.03
2018-07-09T07:56:23.955Z,46.62
2018-07-09T07:57:24.007Z,46.81
2018-07-09T07:58:23.889Z,46.88
2018-07-09T07:59:23.888Z,46.73
2018-07-09T08:00:23.912Z,46.89
2018-07-09T08:01:23.935Z,47.12
2018-07-09T08:02:23.905Z,46.65
2018-07-09T08:03:23.897Z,46.39
2018-07-09T08:04:24.116Z,46.8
2018-07-09T08:05:23.944Z,46.66
2018-07-09T08:06:23.947Z,46.19
2018-07-09T08:07:24.083Z,46.79
2018-07-09T08:08:24.024Z,46.04
2018-07-09T08:09:24.022Z,46.02
2018-07-09T08:10:23.938Z,46.18
2018-07-09T08:11:47.725Z,46.13
2018-07-09T08:13:37.045Z,46.13
2018-07-09T08:14:36.981Z,46.18
2018-07-09T08:15:37.089Z,46.14
2018-07-09T08:16:37.182Z,45.77
2018-07-09T08:17:36.955Z,45.39
2018-07-09T08:18:37.007Z,45.52
2018-07-09T08:19:36.987Z,44.85
2018-07-09T08:20:36.970Z,45.28
2018-07-09T08:21:36.973Z,45.04
2018-07-09T08:22:37.241Z,44.92
2018-07-09T08:23:37.153Z,45.26
2018-07-09T08:24:37.031Z,45.15
2018-07-09T08:25:37.334Z,45.14
2018-07-09T08:26:36.998Z,45
2018-07-09T08:27:37.172Z,44.8
2018-07-09T08:28:37.007Z,44.7
2018-07-09T08:29:37.084Z,44.63
2018-07-09T08:30:36.973Z,44.29
2018-07-09T08:31:37.107Z,43.94
2018-07-09T08:32:37.150Z,43.92
2018-07-09T08:33:36.996Z,44.01
2018-07-09T08:34:37.048Z,43.93
2018-07-09T08:35:37.066Z,44.05
2018-07-09T08:36:37.138Z,44.06
2018-07-09T08:37:37.168Z,44.21
2018-07-09T08:38:36.989Z,44.03
2018-07-09T08:39:36.986Z,43.67
2018-07-09T08:40:37.014Z,43.61
2018-07-09T08:41:36.998Z,43.41
2018-07-09T08:42:37.063Z,43.56
2018-07-09T08:43:37.050Z,43.42
2018-07-09T08:44:37.500Z,43.19
2018-07-09T08:45:37.005Z,43.13
2018-07-09T08:46:37.088Z,42.94
2018-07-09T08:47:37.075Z,43.09
2018-07-09T08:48:37.008Z,43.22
2018-07-09T08:49:37.003Z,42.92
2018-07-09T08:50:37.039Z,42.59
2018-07-09T08:51:37.030Z,42.01
2018-07-09T08:52:36.980Z,41.26
2018-07-09T08:53:37.089Z,41.4
2018-07-09T08:54:36.988Z,41.4
2018-07-09T08:55:36.993Z,41.07
2018-07-09T08:56:37.001Z,40.95
2018-07-09T08:57:37.031Z,40.74
2018-07-09T08:58:37.025Z,40.79
2018-07-09T08:59:36.991Z,40.28
2018-07-09T09:00:37.035Z,40.12
2018-07-09T09:01:37.004Z,40.03
2018-07-09T09:02:37.060Z,40.09
2018-07-09T09:03:37.079Z,39.67
2018-07-09T09:04:37.007Z,39.51
2018-07-09T09:05:37.142Z,39.84
2018-07-09T09:06:37.023Z,39.94
2018-07-09T09:07:37.028Z,40.19
2018-07-09T09:08:37.093Z,39.43
2018-07-09T09:09:37.200Z,39.74
2018-07-09T09:10:37.009Z,39.33
2018-07-09T09:11:37.014Z,38.77
2018-07-09T09:12:37.021Z,38.96
2018-07-09T09:13:37.171Z,38.99
2018-07-09T09:14:37.028Z,39.41
2018-07-09T09:15:37.082Z,39.56
2018-07-09T09:16:37.176Z,39.54
2018-07-09T09:17:37.250Z,39.71
2018-07-09T09:18:37.106Z,39.92
2018-07-09T09:19:37.319Z,39.49
2018-07-09T09:20:37.070Z,39.47
2018-07-09T09:21:37.450Z,39.58
2018-07-09T09:22:37.041Z,39.47
2018-07-09T09:23:37.042Z,39.3
2018-07-09T09:24:37.128Z,39.57
2018-07-09T09:25:37.273Z,39.44
2018-07-09T09:26:37.022Z,39.36
2018-07-09T09:27:37.093Z,38.93
2018-07-09T09:28:37.014Z,38.79
2018-07-09T09:29:37.298Z,38.38
2018-07-09T09:30:37.189Z,38.53
2018-07-09T09:31:37.232Z,37.9
2018-07-09T09:32:37.078Z,38.12
2018-07-09T09:33:37.088Z,38.51
2018-07-09T09:34:37.056Z,38.21
2018-07-09T09:35:37.112Z,38.18
2018-07-09T09:36:37.437Z,38.13
2018-07-09T09:37:37.036Z,37.81
2018-07-09T09:38:37.036Z,37.98
2018-07-09T09:39:37.031Z,38.11
2018-07-09T09:40:37.036Z,38.43
2018-07-09T09:41:37.282Z,38.49
2018-07-09T09:42:37.029Z,38.25
2018-07-09T09:43:37.066Z,38.51
2018-07-09T09:44:37.101Z,38.38
2018-07-09T09:45:37.180Z,38.53
2018-07-09T09:46:37.133Z,38.02
2018-07-09T09:47:37.082Z,38
2018-07-09T09:48:37.029Z,38.25
2018-07-09T09:49:37.436Z,38.63
2018-07-09T09:50:37.053Z,38.96
2018-07-09T09:51:37.070Z,39.2
2018-07-09T09:52:37.071Z,38.74
2018-07-09T09:53:37.197Z,38.43
2018-07-09T09:54:37.069Z,38.4
2018-07-09T09:55:37.057Z,38.41
2018-07-09T09:56:37.055Z,38.43
2018-07-09T09:57:37.206Z,37.72
2018-07-09T09:58:37.023Z,38.16
2018-07-09T09:59:37.090Z,37.51
2018-07-09T10:00:37.096Z,37.19
2018-07-09T10:01:37.039Z,36.97
2018-07-09T10:02:37.069Z,37.44
2018-07-09T10:03:37.077Z,37.77
2018-07-09T10:04:37.032Z,38.03
2018-07-09T10:05:37.057Z,38.33
2018-07-09T10:06:37.089Z,38.29
2018-07-09T10:07:37.090Z,38.65
2018-07-09T10:08:37.105Z,38.25
2018-07-09T10:09:37.047Z,38.51
2018-07-09T10:10:37.074Z,38.35
2018-07-09T10:11:37.054Z,38.47
2018-07-09T10:12:37.040Z,38.47
2018-07-09T10:13:37.375Z,38.3
2018-07-09T10:14:37.065Z,38.53
2018-07-09T10:15:37.057Z,38.63
2018-07-09T10:16:37.046Z,37.87
2018-07-09T10:17:37.086Z,38.43
2018-07-09T10:18:37.057Z,38.13
2018-07-09T10:19:37.057Z,37.57
2018-07-09T10:20:37.063Z,37.25
2018-07-09T10:21:37.047Z,37.23
2018-07-09T10:22:37.062Z,37.52
2018-07-09T10:23:37.208Z,37.77
2018-07-09T10:24:37.100Z,37.99
2018-07-09T10:25:37.065Z,37.91
2018-07-09T10:26:37.072Z,37.81
2018-07-09T10:27:37.118Z,37.29
2018-07-09T10:28:37.091Z,37.41
2018-07-09T10:29:37.181Z,37.6
2018-07-09T10:30:37.058Z,37.94
2018-07-09T10:31:37.093Z,37.63
2018-07-09T10:32:37.072Z,37.7
2018-07-09T10:33:37.092Z,37.66
2018-07-09T10:34:37.072Z,37.27
2018-07-09T10:35:37.100Z,37.61
2018-07-09T10:36:37.068Z,37.69
2018-07-09T10:37:37.104Z,37.07
2018-07-09T10:38:37.085Z,36.88
2018-07-09T10:39:37.336Z,37.59
2018-07-09T10:40:37.098Z,37.51
2018-07-09T10:41:37.077Z,37.44
2018-07-09T10:42:37.113Z,37.2
2018-07-09T10:43:37.076Z,36.5
2018-07-09T10:44:37.156Z,36.53
2018-07-09T10:45:37.093Z,36.54
2018-07-09T10:46:37.091Z,36.33
2018-07-09T10:47:37.115Z,36.35
2018-07-09T10:48:37.095Z,36.61
2018-07-09T10:49:37.114Z,36.32
2018-07-09T10:50:37.100Z,36.29
2018-07-09T10:51:37.084Z,35.91
2018-07-09T10:52:37.076Z,35.52
2018-07-09T10:53:37.100Z,35.08
2018-07-09T10:54:37.453Z,34.69
2018-07-09T10:55:37.072Z,35.26
2018-07-09T10:56:37.255Z,34.85
2018-07-09T10:57:37.105Z,35.53
2018-07-09T10:58:37.099Z,35.7
2018-07-09T10:59:37.147Z,35.03
2018-07-09T11:00:37.128Z,34.79
2018-07-09T11:01:37.107Z,35.04
2018-07-09T11:02:37.133Z,35.11
2018-07-09T11:03:37.121Z,34.85
2018-07-09T11:04:37.111Z,35.15
2018-07-09T11:05:37.116Z,35.27
2018-07-09T11:06:37.272Z,35.4
2018-07-09T11:07:37.236Z,34.89
2018-07-09T11:08:37.147Z,35.11
2018-07-09T11:09:37.212Z,35.42
2018-07-09T11:10:37.364Z,35.27
2018-07-09T11:11:37.120Z,35.13
2018-07-09T11:12:37.136Z,35.32
2018-07-09T11:13:37.200Z,35.25
2018-07-09T11:14:38.106Z,35.38
2018-07-09T11:15:37.109Z,35.4
2018-07-09T11:17:13.692Z,35.59
2018-07-09T11:17:37.121Z,35.47
2018-07-09T11:18:37.091Z,35.63
2018-07-09T11:19:37.113Z,35.75
2018-07-09T11:20:37.086Z,35.63
2018-07-09T11:21:37.104Z,35.9
2018-07-09T11:22:37.468Z,35.58
2018-07-09T11:23:37.088Z,35.54
2018-07-09T11:24:37.112Z,35.11
2018-07-09T11:25:37.122Z,35.06
2018-07-09T11:26:37.090Z,35.09
2018-07-09T11:27:37.123Z,35.16
2018-07-09T11:28:37.100Z,35.18
2018-07-09T11:29:37.111Z,35.01
2018-07-09T11:30:37.118Z,35.54
2018-07-09T11:31:37.102Z,35.23
2018-07-09T11:32:37.098Z,35.12
2018-07-09T11:33:37.116Z,35.16
2018-07-09T11:34:37.113Z,35.2
2018-07-09T11:35:37.094Z,35.27
2018-07-09T11:36:37.104Z,35.14
2018-07-09T11:37:37.112Z,35.07
2018-07-09T11:38:37.175Z,35.24
2018-07-09T11:39:37.143Z,35.11
2018-07-09T11:40:37.167Z,35.09
2018-07-09T11:41:37.112Z,34.77
2018-07-09T11:42:37.168Z,35.09
2018-07-09T11:43:37.128Z,35.11
2018-07-09T11:44:37.352Z,34.96
2018-07-09T11:45:37.166Z,35.36
2018-07-09T11:46:37.211Z,35.15
2018-07-09T11:47:37.143Z,35.08
2018-07-09T11:48:37.180Z,34.83
2018-07-09T11:49:37.181Z,34.74
2018-07-09T11:50:37.121Z,34.8
2018-07-09T11:51:37.117Z,34.58
2018-07-09T11:52:37.131Z,34.6
2018-07-09T11:53:37.153Z,34.91
2018-07-09T11:54:37.147Z,34.69
2018-07-09T11:55:37.265Z,34.3
2018-07-09T11:56:37.164Z,34.38
2018-07-09T11:57:37.140Z,34.16
2018-07-09T11:58:37.191Z,33.85
2018-07-09T11:59:37.167Z,33.71
2018-07-09T12:00:37.128Z,33.77
2018-07-09T12:01:37.127Z,33.85
2018-07-09T12:02:37.240Z,34.03
2018-07-09T12:03:37.173Z,34.29
2018-07-09T12:04:37.320Z,34.37
2018-07-09T12:05:37.174Z,33.97
2018-07-09T12:06:37.184Z,33.85
2018-07-09T12:07:37.302Z,33.47
2018-07-09T12:08:37.185Z,33.65
2018-07-09T12:09:37.163Z,33.75
2018-07-09T12:10:37.170Z,33.74
2018-07-09T12:11:37.151Z,33.74
2018-07-09T12:12:37.455Z,33.99
2018-07-09T12:13:37.197Z,33.69
2018-07-09T12:14:37.354Z,33.86
2018-07-09T12:15:37.227Z,33.87
2018-07-09T12:16:37.162Z,33.96
2018-07-09T12:17:37.195Z,33.57
2018-07-09T12:18:37.331Z,33.68
2018-07-09T12:19:37.190Z,33.51
2018-07-09T12:20:37.178Z,33.52
2018-07-09T12:21:37.196Z,33.3
2018-07-09T12:22:37.197Z,33.65
2018-07-09T12:23:37.252Z,33.08
2018-07-09T12:24:37.140Z,33.02
2018-07-09T12:25:37.670Z,33
2018-07-09T12:26:37.192Z,32.53
2018-07-09T12:27:37.285Z,32.27
2018-07-09T12:28:37.186Z,32.35
2018-07-09T12:29:37.338Z,32.1
2018-07-09T12:30:37.166Z,32.34
2018-07-09T12:31:37.186Z,32.52
2018-07-09T12:32:37.167Z,32.23
2018-07-09T12:33:37.163Z,32
2018-07-09T12:34:37.159Z,32.02
2018-07-09T12:35:37.152Z,31.69
2018-07-09T12:36:37.155Z,31.63
2018-07-09T12:37:37.230Z,31.5
2018-07-09T12:38:37.149Z,31.73
2018-07-09T12:39:37.192Z,31.76
2018-07-09T12:40:37.160Z,32.13
2018-07-09T12:41:37.167Z,31.4
2018-07-09T12:42:37.142Z,31.63
2018-07-09T12:43:37.194Z,31.8
2018-07-09T12:44:37.196Z,31.59
2018-07-09T12:45:37.167Z,31.46
2018-07-09T12:46:37.156Z,31.67
2018-07-09T12:47:37.164Z,31.42
2018-07-09T12:48:37.174Z,31.53
2018-07-09T12:49:37.228Z,31.1
2018-07-09T12:50:37.199Z,31.15
2018-07-09T12:51:37.185Z,30.92
2018-07-09T12:52:37.169Z,31.12
2018-07-09T12:53:37.169Z,31.07
2018-07-09T12:54:37.241Z,31.09
2018-07-09T12:55:37.218Z,31.11
2018-07-09T12:56:37.296Z,30.95
2018-07-09T12:57:37.214Z,30.87